Effective Sunday, March 17, 2024, the National Weather Service National Data Buoy Center will discontinue its Dial-A-Buoy Interactive Voice Response system. For more information, see Service Change Notice 24-06 (PDF).

Station LMFS1 - Lake Murray SC Image indicating link to RSS feed of recent meteorological observations for station LMFS1


Conditions at LMFS1 as of
(3:20 am EST)
0820 GMT on 02/28/2024:
     

Click on the graph icon in the table below to see a time series plot of the last five days of that observation.

5-day plot - Wind Direction Wind Direction (WDIR):SSW ( 210 deg true )
5-day plot - Wind Speed Wind Speed (WSPD): 12 kts
5-day plot - Wind Gust Wind Gust (GST): 15 kts
5-day plot - Air Temperature Air Temperature (ATMP): 61.3 °F
5-day plot - Wind Speed at 10 Meters Wind Speed at 10 meters (WSPD10M): 12 kts
5-day plot - Wind Speed at 20 Meters Wind Speed at 20 meters (WSPD20M): 14 kts
5-day plot -  Wind Speed, Wind Gust and Atmospheric Pressure Combined plot of Wind Speed, Gust, and Air Pressure
Previous observations
TIME
(EST)
5-day plot - Wind Direction
WDIR
 
5-day plot - Wind Speed
WSPD
kts
5-day plot - Wind Gust
GST
kts
5-day plot - Wave Height
WVHT
ft
5-day plot - Dominant Wave Period
DPD
sec
5-day plot - Average Wave Period
APD
sec
5-day plot - Mean Wave Direction
MWD
 
5-day plot - Atmospheric Pressure
PRES
in
5-day plot - Pressure Tendency
PTDY
in
5-day plot - Air Temperature
ATMP
°F
5-day plot - Water Temperature
WTMP
°F
5-day plot - Dew Point
DEWP
°F
5-day plot - Salinity
SAL
psu
5-day plot - Visibility
VIS
nmi
5-day plot - Tide (above MLLW)
TIDE
ft
2024-02-28 03:10 am SW 11 14------ 60.8-----
2024-02-28 03:00 am SW 11 15------ 61.9-----
2024-02-28 02:50 am SW 12 15------ 62.1-----
2024-02-28 02:40 am SW 13 15------ 62.1-----
2024-02-28 02:30 am SW 12 15------ 62.4-----
2024-02-28 02:20 am SW 12 17------ 62.8-----
2024-02-28 02:10 am SW 13 16------ 63.0-----
2024-02-28 02:00 am SW 14 19------ 63.0-----
2024-02-28 01:50 am SW 13 16------ 62.2-----
2024-02-28 01:40 amSSW 14 19------ 60.8-----
2024-02-28 01:30 amSSW 13 17------ 62.1-----
2024-02-28 01:20 amSSW 14 19------ 61.5-----
2024-02-28 01:10 am S 13 19------ 61.3-----
2024-02-28 01:00 amSSW 8 11------ 59.9-----
2024-02-28 12:50 am S 11 13------ 60.4-----
2024-02-28 12:40 am S 11 12------ 60.6-----
2024-02-28 12:30 amSSW 8 13------ 60.1-----
2024-02-28 12:20 am S 11 13------ 61.3-----
2024-02-28 12:10 am S 10 12------ 60.1-----
2024-02-28 12:00 am S 9 12------ 60.4-----
2024-02-27 11:50 pm S 10 12------ 60.3-----
2024-02-27 11:40 pm S 9 11------ 59.7-----
2024-02-27 11:30 pm S 8 10------ 59.9-----
2024-02-27 11:20 pm S 9 11------ 61.0-----
2024-02-27 11:10 pmSSE 11 11------ 59.9-----
2024-02-27 11:00 pm S 9 11------ 60.1-----
2024-02-27 10:50 pm S 10 10------ 59.7-----
2024-02-27 10:40 pm S 10 11------ 60.6-----
2024-02-27 10:30 pmSSE 10 12------ 60.6-----
2024-02-27 10:20 pmSSE 12 13------ 61.9-----
2024-02-27 10:10 pmSSE 9 10------ 63.0-----
2024-02-27 10:00 pm SE 5 10------ 64.0-----
2024-02-27 09:50 pmSSE 7 10------ 61.0-----
2024-02-27 09:40 pm S 7 10------ 60.4-----
2024-02-27 09:30 pm S 8 10------ 61.5-----
2024-02-27 09:20 pmSSW 8 11------ 62.2-----
2024-02-27 09:10 pm S 7 11------ 63.1-----
2024-02-27 09:00 pm S 8 11------ 61.9-----
2024-02-27 08:50 pmSSW 11 12------ 61.9-----
2024-02-27 08:40 pm S 11 12------ 61.9-----
2024-02-27 08:30 pm S 8 11------ 61.0-----
2024-02-27 08:20 pm S 10 12------ 62.1-----
2024-02-27 08:10 pm S 9 11------ 61.2-----
2024-02-27 08:00 pm S 9 12------ 61.3-----
2024-02-27 07:50 pm S 8 10------ 61.0-----
2024-02-27 07:40 pmSSE 6 7------ 62.2-----
2024-02-27 07:30 pm SE 4 5------ 60.4-----
2024-02-27 07:20 pm S 3 3------ 58.8-----
2024-02-27 07:10 pm S 3 3------ 58.6-----
2024-02-27 07:00 pmSSE 4 7------ 61.0-----
2024-02-27 06:50 pmWSW 2 3------ 60.4-----
2024-02-27 06:40 pmWNW 2 3------ 60.8-----
2024-02-27 06:30 pm- 0 1------ 62.2-----
2024-02-27 06:20 pm- 0 3------ 62.8-----
2024-02-27 06:10 pmWNW 2 4------ 64.2-----
2024-02-27 06:00 pmWNW 3 6------ 64.9-----
2024-02-27 05:50 pm NW 3 8------ 65.1-----
2024-02-27 05:40 pmWNW 6 9------ 64.2-----
2024-02-27 05:30 pmSSW 8 17------ 62.1-----
2024-02-27 05:20 pmSSE 17 22------ 61.3-----
2024-02-27 05:10 pm S 17 19------ 62.2-----
2024-02-27 05:00 pmWSW 11 15------ 64.9-----
2024-02-27 04:50 pm S 12 15------ 61.0-----
2024-02-27 04:40 pm S 13 17------ 60.8-----
2024-02-27 04:30 pm S 16 16------ 62.1-----
2024-02-27 04:20 pm S 14 17------ 61.5-----
2024-02-27 04:10 pm S 15 16------ 60.3-----
2024-02-27 04:00 pmSSW 9 12------ 63.1-----
2024-02-27 03:50 pm SW 10 15------ 63.3-----
2024-02-27 03:40 pmSSW 12 15------ 64.4-----
2024-02-27 03:30 pmSSW 13 15------ 60.6-----
2024-02-27 03:20 pm S 10 11------ 59.7-----
2024-02-27 03:10 pmSSW 9 13------ 60.3-----
2024-02-27 03:00 pm S 13 16------ 62.6-----
2024-02-27 02:50 pm S 10 16------ 61.5-----
2024-02-27 02:40 pm S 11 19------ 61.9-----
2024-02-27 02:30 pm S 15 19------ 62.4-----
2024-02-27 02:20 pm S 16 18------ 61.9-----
2024-02-27 02:10 pm S 14 19------ 62.4-----
2024-02-27 02:00 pm S 12 15------ 60.6-----
2024-02-27 01:50 pm S 14 16------ 60.6-----
2024-02-27 01:40 pm S 13 16------ 60.8-----
2024-02-27 01:30 pmSSE 12 16------ 61.5-----
2024-02-27 01:20 pm S 16 19------ 61.2-----
2024-02-27 01:10 pmSSE 8 9------ 58.6-----
2024-02-27 01:00 pm S 8 8------ 57.9-----
2024-02-27 12:50 pm S 8 9------ 57.6-----
2024-02-27 12:40 pm S 5 6------ 57.7-----
2024-02-27 12:30 pm S 4 5------ 58.8-----
2024-02-27 12:20 pm S 4 7------ 57.9-----
2024-02-27 12:10 pm S 7 9------ 57.6-----
2024-02-27 12:00 pm S 8 10------ 57.6-----
2024-02-27 11:50 am S 9 13------ 57.4-----
2024-02-27 11:40 am S 8 10------ 56.8-----
2024-02-27 11:30 am S 9 9------ 56.3-----
2024-02-27 11:20 am S 8 10------ 56.5-----
2024-02-27 11:10 am S 8 9------ 55.9-----
2024-02-27 11:00 am S 8 11------ 55.8-----
2024-02-27 10:50 amSSW 8 12------ 55.6-----
2024-02-27 10:40 amSSW 8 11------ 55.6-----
2024-02-27 10:30 amSSW 9 11------ 55.4-----
2024-02-27 10:20 am S 9 11------ 55.6-----
2024-02-27 10:10 am S 9 10------ 55.6-----
2024-02-27 10:00 am S 7 10------ 55.0-----
2024-02-27 09:50 am S 7 10------ 54.7-----
2024-02-27 09:40 am S 8 10------ 54.9-----
2024-02-27 09:30 amSSW 9 13------ 54.9-----
2024-02-27 09:20 am S 10 12------ 54.9-----
2024-02-27 09:10 am S 9 11------ 55.0-----
2024-02-27 09:00 am S 9 11------ 54.9-----
2024-02-27 08:50 am S 9 11------ 54.9-----
2024-02-27 08:40 amSSW 7 10------ 54.5-----
2024-02-27 08:30 amSSW 8 10------ 54.9-----
2024-02-27 08:20 am S 7 9------ 54.5-----
2024-02-27 08:10 amSSW 8 10------ 54.7-----
2024-02-27 08:00 amSSW 7 8------ 54.3-----
2024-02-27 07:50 amSSW 7 8------ 54.1-----
2024-02-27 07:40 am S 7 8------ 54.3-----
2024-02-27 07:30 am S 7 8------ 54.0-----
2024-02-27 07:20 am S 7 9------ 54.0-----
2024-02-27 07:10 am S 7 10------ 54.0-----
2024-02-27 07:00 am S 9 10------ 54.1-----
2024-02-27 06:50 am S 9 10------ 54.0-----
2024-02-27 06:40 am S 9 10------ 54.0-----
2024-02-27 06:30 am S 8 9------ 54.1-----
2024-02-27 06:20 amSSW 9 10------ 54.0-----
2024-02-27 06:10 amSSW 9 11------ 54.0-----
2024-02-27 06:00 amSSW 7 8------ 53.6-----
2024-02-27 05:50 amSSW 7 9------ 54.0-----
2024-02-27 05:40 am SW 8 9------ 54.9-----
2024-02-27 05:30 amSSW 8 9------ 54.3-----
2024-02-27 05:20 amSSW 8 9------ 54.3-----
2024-02-27 05:10 amSSW 9 10------ 55.0-----
2024-02-27 05:00 amSSW 9 10------ 55.4-----
2024-02-27 04:50 am SW 9 12------ 55.0-----
2024-02-27 04:40 amSSW 9 13------ 54.7-----
2024-02-27 04:30 am SW 10 12------ 54.9-----
2024-02-27 04:20 amSSW 9 11------ 54.7-----
2024-02-27 04:10 amSSW 9 12------ 54.5-----
2024-02-27 04:00 amSSW 11 14------ 54.9-----
2024-02-27 03:50 am SW 11 14------ 54.9-----